sensor_id;sensor_type;location;lat;lon;timestamp;pressure;altitude;pressure_sealevel;temperature;humidity
18821;BME280;9539;59.332;18.034;2022-11-11T00:00:37;100615.34;;;11.35;100.00
18821;BME280;9539;59.332;18.034;2022-11-11T00:03:04;100619.28;;;11.29;100.00
18821;BME280;9539;59.332;18.034;2022-11-11T00:05:32;100617.81;;;11.38;100.00
18821;BME280;9539;59.332;18.034;2022-11-11T00:07:59;100618.13;;;11.33;100.00
18821;BME280;9539;59.332;18.034;2022-11-11T00:10:27;100619.00;;;11.34;100.00
18821;BME280;9539;59.332;18.034;2022-11-11T00:12:58;100602.69;;;11.26;100.00
18821;BME280;9539;59.332;18.034;2022-11-11T00:15:26;100611.03;;;11.34;100.00
18821;BME280;9539;59.332;18.034;2022-11-11T00:17:53;100600.91;;;11.26;100.00
18821;BME280;9539;59.332;18.034;2022-11-11T00:20:37;100573.41;;;11.27;100.00
18821;BME280;9539;59.332;18.034;2022-11-11T00:23:23;100580.84;;;11.47;100.00
18821;BME280;9539;59.332;18.034;2022-11-11T00:26:08;100570.78;;;11.40;100.00
18821;BME280;9539;59.332;18.034;2022-11-11T00:28:36;100562.03;;;11.38;100.00
18821;BME280;9539;59.332;18.034;2022-11-11T00:31:06;100570.00;;;11.38;100.00
18821;BME280;9539;59.332;18.034;2022-11-11T00:33:33;100584.06;;;11.40;100.00
18821;BME280;9539;59.332;18.034;2022-11-11T00:36:00;100574.59;;;11.48;100.00
18821;BME280;9539;59.332;18.034;2022-11-11T00:38:27;100564.91;;;11.47;100.00
18821;BME280;9539;59.332;18.034;2022-11-11T00:41:13;100581.09;;;11.57;100.00
18821;BME280;9539;59.332;18.034;2022-11-11T00:43:41;100572.28;;;11.56;100.00
18821;BME280;9539;59.332;18.034;2022-11-11T00:46:10;100569.31;;;11.61;100.00
18821;BME280;9539;59.332;18.034;2022-11-11T00:48:55;100565.03;;;11.46;100.00
18821;BME280;9539;59.332;18.034;2022-11-11T00:51:39;100548.69;;;11.52;100.00
18821;BME280;9539;59.332;18.034;2022-11-11T00:54:07;100549.53;;;11.52;100.00
18821;BME280;9539;59.332;18.034;2022-11-11T00:56:36;100557.94;;;11.59;100.00
18821;BME280;9539;59.332;18.034;2022-11-11T00:59:03;100538.81;;;11.67;100.00
18821;BME280;9539;59.332;18.034;2022-11-11T01:01:32;100538.41;;;11.73;100.00
18821;BME280;9539;59.332;18.034;2022-11-11T01:03:59;100527.75;;;11.60;100.00
18821;BME280;9539;59.332;18.034;2022-11-11T01:06:26;100533.91;;;11.73;100.00
18821;BME280;9539;59.332;18.034;2022-11-11T01:08:53;100551.59;;;11.74;100.00
18821;BME280;9539;59.332;18.034;2022-11-11T01:11:21;100537.69;;;11.83;100.00
18821;BME280;9539;59.332;18.034;2022-11-11T01:13:48;100544.59;;;11.86;100.00
18821;BME280;9539;59.332;18.034;2022-11-11T01:16:17;100542.06;;;11.84;100.00
18821;BME280;9539;59.332;18.034;2022-11-11T01:18:47;100547.47;;;11.95;100.00
18821;BME280;9539;59.332;18.034;2022-11-11T01:21:16;100536.41;;;11.89;100.00
18821;BME280;9539;59.332;18.034;2022-11-11T01:23:43;100519.28;;;11.80;100.00
18821;BME280;9539;59.332;18.034;2022-11-11T01:26:13;100521.31;;;11.89;100.00
18821;BME280;9539;59.332;18.034;2022-11-11T01:28:40;100519.81;;;11.85;100.00
18821;BME280;9539;59.332;18.034;2022-11-11T01:31:09;100510.25;;;11.95;100.00
18821;BME280;9539;59.332;18.034;2022-11-11T01:33:37;100494.81;;;11.75;100.00
18821;BME280;9539;59.332;18.034;2022-11-11T01:36:07;100511.28;;;11.80;100.00
18821;BME280;9539;59.332;18.034;2022-11-11T01:38:35;100511.41;;;11.91;100.00
18821;BME280;9539;59.332;18.034;2022-11-11T01:41:02;100519.25;;;11.93;100.00
18821;BME280;9539;59.332;18.034;2022-11-11T01:43:51;100525.44;;;11.93;100.00
18821;BME280;9539;59.332;18.034;2022-11-11T01:46:25;100540.00;;;12.00;100.00
18821;BME280;9539;59.332;18.034;2022-11-11T01:48:55;100543.94;;;11.95;100.00
18821;BME280;9539;59.332;18.034;2022-11-11T01:51:46;100542.81;;;11.99;100.00
18821;BME280;9539;59.332;18.034;2022-11-11T01:54:19;100542.03;;;12.10;100.00
18821;BME280;9539;59.332;18.034;2022-11-11T01:56:50;100542.78;;;12.12;100.00
18821;BME280;9539;59.332;18.034;2022-11-11T01:59:18;100527.22;;;12.06;100.00
18821;BME280;9539;59.332;18.034;2022-11-11T02:01:46;100522.91;;;12.05;100.00
18821;BME280;9539;59.332;18.034;2022-11-11T02:04:13;100519.81;;;11.98;100.00
18821;BME280;9539;59.332;18.034;2022-11-11T02:07:00;100516.31;;;11.97;100.00
18821;BME280;9539;59.332;18.034;2022-11-11T02:09:28;100500.13;;;12.00;100.00
18821;BME280;9539;59.332;18.034;2022-11-11T02:11:56;100514.91;;;12.05;100.00
18821;BME280;9539;59.332;18.034;2022-11-11T02:14:44;100499.69;;;12.07;100.00
18821;BME280;9539;59.332;18.034;2022-11-11T02:17:14;100501.94;;;12.00;100.00
18821;BME280;9539;59.332;18.034;2022-11-11T02:19:45;100472.06;;;11.96;100.00
18821;BME280;9539;59.332;18.034;2022-11-11T02:22:21;100463.31;;;12.07;100.00
18821;BME280;9539;59.332;18.034;2022-11-11T02:24:51;100471.00;;;11.99;100.00
18821;BME280;9539;59.332;18.034;2022-11-11T02:27:20;100448.53;;;12.03;100.00
18821;BME280;9539;59.332;18.034;2022-11-11T02:29:50;100441.84;;;11.97;100.00
18821;BME280;9539;59.332;18.034;2022-11-11T02:32:18;100449.06;;;12.08;100.00
18821;BME280;9539;59.332;18.034;2022-11-11T02:34:45;100443.31;;;12.01;100.00
18821;BME280;9539;59.332;18.034;2022-11-11T02:37:13;100448.94;;;12.10;100.00
18821;BME280;9539;59.332;18.034;2022-11-11T02:39:45;100436.81;;;12.18;100.00
18821;BME280;9539;59.332;18.034;2022-11-11T02:42:15;100429.44;;;12.22;100.00
18821;BME280;9539;59.332;18.034;2022-11-11T02:44:43;100429.53;;;12.20;100.00
18821;BME280;9539;59.332;18.034;2022-11-11T02:47:10;100427.84;;;12.19;100.00
18821;BME280;9539;59.332;18.034;2022-11-11T02:49:36;100432.00;;;12.23;100.00
18821;BME280;9539;59.332;18.034;2022-11-11T02:52:03;100433.81;;;12.23;100.00
18821;BME280;9539;59.332;18.034;2022-11-11T02:54:30;100424.72;;;12.25;100.00
18821;BME280;9539;59.332;18.034;2022-11-11T02:56:57;100419.88;;;12.19;100.00
18821;BME280;9539;59.332;18.034;2022-11-11T02:59:35;100419.16;;;12.17;100.00
18821;BME280;9539;59.332;18.034;2022-11-11T03:02:02;100404.00;;;12.30;100.00
18821;BME280;9539;59.332;18.034;2022-11-11T03:04:29;100393.81;;;12.24;100.00
18821;BME280;9539;59.332;18.034;2022-11-11T03:06:56;100388.88;;;12.31;100.00
18821;BME280;9539;59.332;18.034;2022-11-11T03:09:22;100388.25;;;12.27;100.00
18821;BME280;9539;59.332;18.034;2022-11-11T03:11:49;100381.78;;;12.19;100.00
18821;BME280;9539;59.332;18.034;2022-11-11T03:14:16;100387.50;;;12.25;100.00
18821;BME280;9539;59.332;18.034;2022-11-11T03:16:44;100385.94;;;12.23;100.00
18821;BME280;9539;59.332;18.034;2022-11-11T03:19:28;100384.97;;;12.24;100.00
18821;BME280;9539;59.332;18.034;2022-11-11T03:21:56;100383.16;;;12.24;100.00
18821;BME280;9539;59.332;18.034;2022-11-11T03:24:23;100387.19;;;12.30;100.00
18821;BME280;9539;59.332;18.034;2022-11-11T03:27:09;100386.09;;;12.32;100.00
18821;BME280;9539;59.332;18.034;2022-11-11T03:29:36;100369.41;;;12.30;100.00
18821;BME280;9539;59.332;18.034;2022-11-11T03:32:05;100376.13;;;12.23;100.00
18821;BME280;9539;59.332;18.034;2022-11-11T03:34:31;100386.44;;;12.28;100.00
18821;BME280;9539;59.332;18.034;2022-11-11T03:36:58;100367.41;;;12.21;100.00
18821;BME280;9539;59.332;18.034;2022-11-11T03:39:42;100368.94;;;12.36;100.00
18821;BME280;9539;59.332;18.034;2022-11-11T03:42:09;100371.38;;;12.39;100.00
18821;BME280;9539;59.332;18.034;2022-11-11T03:44:36;100371.72;;;12.35;100.00
18821;BME280;9539;59.332;18.034;2022-11-11T03:47:03;100369.50;;;12.29;100.00
18821;BME280;9539;59.332;18.034;2022-11-11T03:49:31;100372.38;;;12.26;100.00
18821;BME280;9539;59.332;18.034;2022-11-11T03:51:58;100367.91;;;12.26;100.00
18821;BME280;9539;59.332;18.034;2022-11-11T03:54:25;100377.53;;;12.40;100.00
18821;BME280;9539;59.332;18.034;2022-11-11T03:56:51;100369.81;;;12.37;100.00
18821;BME280;9539;59.332;18.034;2022-11-11T03:59:38;100377.94;;;12.47;100.00
18821;BME280;9539;59.332;18.034;2022-11-11T04:02:13;100376.38;;;12.44;100.00
18821;BME280;9539;59.332;18.034;2022-11-11T04:04:59;100387.84;;;12.45;100.00
18821;BME280;9539;59.332;18.034;2022-11-11T04:07:43;100387.84;;;12.45;100.00
18821;BME280;9539;59.332;18.034;2022-11-11T04:10:28;100392.72;;;12.51;100.00
18821;BME280;9539;59.332;18.034;2022-11-11T04:12:56;100382.31;;;12.48;100.00
18821;BME280;9539;59.332;18.034;2022-11-11T04:15:42;100369.09;;;12.46;100.00
18821;BME280;9539;59.332;18.034;2022-11-11T04:18:26;100370.44;;;12.52;100.00
18821;BME280;9539;59.332;18.034;2022-11-11T04:21:08;100378.78;;;12.47;100.00
18821;BME280;9539;59.332;18.034;2022-11-11T04:23:53;100378.19;;;12.44;100.00
18821;BME280;9539;59.332;18.034;2022-11-11T04:26:20;100365.47;;;12.47;100.00
18821;BME280;9539;59.332;18.034;2022-11-11T04:28:46;100383.91;;;12.50;100.00
18821;BME280;9539;59.332;18.034;2022-11-11T04:31:30;100357.78;;;12.55;100.00
18821;BME280;9539;59.332;18.034;2022-11-11T04:33:57;100370.63;;;12.61;100.00
18821;BME280;9539;59.332;18.034;2022-11-11T04:36:24;100378.03;;;12.69;100.00
18821;BME280;9539;59.332;18.034;2022-11-11T04:38:51;100360.97;;;12.71;100.00
18821;BME280;9539;59.332;18.034;2022-11-11T04:41:35;100362.78;;;12.71;100.00
18821;BME280;9539;59.332;18.034;2022-11-11T04:44:02;100369.69;;;12.73;100.00
18821;BME280;9539;59.332;18.034;2022-11-11T04:46:46;100360.50;;;12.77;100.00
18821;BME280;9539;59.332;18.034;2022-11-11T04:49:13;100349.38;;;12.83;100.00
18821;BME280;9539;59.332;18.034;2022-11-11T04:51:41;100337.78;;;12.85;100.00
18821;BME280;9539;59.332;18.034;2022-11-11T04:54:26;100337.69;;;12.97;100.00
18821;BME280;9539;59.332;18.034;2022-11-11T04:56:53;100348.09;;;13.00;100.00
18821;BME280;9539;59.332;18.034;2022-11-11T04:59:19;100344.97;;;12.95;100.00
18821;BME280;9539;59.332;18.034;2022-11-11T05:01:45;100340.97;;;13.01;100.00
18821;BME280;9539;59.332;18.034;2022-11-11T05:04:30;100343.38;;;13.04;100.00
18821;BME280;9539;59.332;18.034;2022-11-11T05:06:58;100363.63;;;13.06;100.00
18821;BME280;9539;59.332;18.034;2022-11-11T05:09:42;100363.63;;;13.06;100.00
18821;BME280;9539;59.332;18.034;2022-11-11T05:12:09;100369.94;;;13.16;100.00
18821;BME280;9539;59.332;18.034;2022-11-11T05:14:36;100364.69;;;13.04;100.00
18821;BME280;9539;59.332;18.034;2022-11-11T05:17:20;100376.38;;;13.14;100.00
18821;BME280;9539;59.332;18.034;2022-11-11T05:20:15;100387.16;;;13.24;100.00
18821;BME280;9539;59.332;18.034;2022-11-11T05:23:01;100392.63;;;13.22;100.00
18821;BME280;9539;59.332;18.034;2022-11-11T05:25:28;100379.06;;;13.25;100.00
18821;BME280;9539;59.332;18.034;2022-11-11T05:27:56;100377.00;;;13.29;100.00
18821;BME280;9539;59.332;18.034;2022-11-11T05:30:24;100362.84;;;13.39;100.00
18821;BME280;9539;59.332;18.034;2022-11-11T05:32:53;100375.69;;;13.45;100.00
18821;BME280;9539;59.332;18.034;2022-11-11T05:35:20;100362.34;;;13.56;100.00
18821;BME280;9539;59.332;18.034;2022-11-11T05:37:47;100365.25;;;13.65;100.00
18821;BME280;9539;59.332;18.034;2022-11-11T05:40:35;100378.84;;;13.73;100.00
18821;BME280;9539;59.332;18.034;2022-11-11T05:43:02;100381.13;;;13.77;100.00
18821;BME280;9539;59.332;18.034;2022-11-11T05:45:29;100377.50;;;13.78;100.00
18821;BME280;9539;59.332;18.034;2022-11-11T05:48:00;100382.94;;;13.77;100.00
18821;BME280;9539;59.332;18.034;2022-11-11T05:50:27;100386.31;;;13.90;100.00
18821;BME280;9539;59.332;18.034;2022-11-11T05:52:53;100391.06;;;13.86;100.00
18821;BME280;9539;59.332;18.034;2022-11-11T05:55:21;100372.50;;;13.96;100.00
18821;BME280;9539;59.332;18.034;2022-11-11T05:57:49;100391.78;;;13.99;100.00
18821;BME280;9539;59.332;18.034;2022-11-11T06:00:17;100374.66;;;14.02;100.00
18821;BME280;9539;59.332;18.034;2022-11-11T06:02:44;100379.88;;;14.04;100.00
18821;BME280;9539;59.332;18.034;2022-11-11T06:05:10;100366.16;;;14.08;100.00
18821;BME280;9539;59.332;18.034;2022-11-11T06:07:37;100346.28;;;14.12;100.00
18821;BME280;9539;59.332;18.034;2022-11-11T06:10:06;100350.78;;;14.12;100.00
18821;BME280;9539;59.332;18.034;2022-11-11T06:13:00;100345.28;;;14.13;100.00
18821;BME280;9539;59.332;18.034;2022-11-11T06:15:35;100340.22;;;14.10;100.00
18821;BME280;9539;59.332;18.034;2022-11-11T06:18:02;100327.84;;;14.09;100.00
18821;BME280;9539;59.332;18.034;2022-11-11T06:20:30;100345.28;;;14.24;100.00
18821;BME280;9539;59.332;18.034;2022-11-11T06:22:59;100342.84;;;14.21;100.00
18821;BME280;9539;59.332;18.034;2022-11-11T06:25:28;100364.66;;;14.26;100.00
18821;BME280;9539;59.332;18.034;2022-11-11T06:28:15;100334.31;;;14.27;100.00
18821;BME280;9539;59.332;18.034;2022-11-11T06:30:42;100341.47;;;14.27;100.00
18821;BME280;9539;59.332;18.034;2022-11-11T06:33:09;100358.56;;;14.35;100.00
18821;BME280;9539;59.332;18.034;2022-11-11T06:35:36;100347.31;;;14.32;100.00
18821;BME280;9539;59.332;18.034;2022-11-11T06:38:05;100344.75;;;14.30;100.00
18821;BME280;9539;59.332;18.034;2022-11-11T06:40:32;100348.66;;;14.37;100.00
18821;BME280;9539;59.332;18.034;2022-11-11T06:42:59;100345.84;;;14.39;100.00
18821;BME280;9539;59.332;18.034;2022-11-11T06:45:29;100343.38;;;14.47;100.00
18821;BME280;9539;59.332;18.034;2022-11-11T06:47:57;100342.19;;;14.51;100.00
18821;BME280;9539;59.332;18.034;2022-11-11T06:50:24;100346.78;;;14.49;100.00
18821;BME280;9539;59.332;18.034;2022-11-11T06:52:51;100339.88;;;14.47;100.00
18821;BME280;9539;59.332;18.034;2022-11-11T06:55:17;100340.09;;;14.55;100.00
18821;BME280;9539;59.332;18.034;2022-11-11T06:57:44;100342.63;;;14.56;100.00
18821;BME280;9539;59.332;18.034;2022-11-11T07:00:12;100337.94;;;14.49;100.00
18821;BME280;9539;59.332;18.034;2022-11-11T07:02:40;100339.34;;;14.53;100.00
18821;BME280;9539;59.332;18.034;2022-11-11T07:05:07;100338.25;;;14.55;100.00
18821;BME280;9539;59.332;18.034;2022-11-11T07:07:34;100333.78;;;14.56;100.00
18821;BME280;9539;59.332;18.034;2022-11-11T07:10:01;100355.59;;;14.61;100.00
18821;BME280;9539;59.332;18.034;2022-11-11T07:12:31;100335.53;;;14.66;100.00
18821;BME280;9539;59.332;18.034;2022-11-11T07:14:58;100345.69;;;14.72;100.00
18821;BME280;9539;59.332;18.034;2022-11-11T07:17:25;100341.19;;;14.73;100.00
18821;BME280;9539;59.332;18.034;2022-11-11T07:19:53;100356.00;;;14.77;100.00
18821;BME280;9539;59.332;18.034;2022-11-11T07:22:20;100350.97;;;14.63;100.00
18821;BME280;9539;59.332;18.034;2022-11-11T07:24:47;100365.75;;;14.67;100.00
18821;BME280;9539;59.332;18.034;2022-11-11T07:27:13;100356.78;;;14.68;100.00
18821;BME280;9539;59.332;18.034;2022-11-11T07:29:40;100355.97;;;14.56;100.00
18821;BME280;9539;59.332;18.034;2022-11-11T07:32:07;100359.56;;;14.66;100.00
18821;BME280;9539;59.332;18.034;2022-11-11T07:34:34;100362.63;;;14.62;100.00
18821;BME280;9539;59.332;18.034;2022-11-11T07:37:02;100371.94;;;14.67;100.00
18821;BME280;9539;59.332;18.034;2022-11-11T07:39:28;100380.88;;;14.57;100.00
18821;BME280;9539;59.332;18.034;2022-11-11T07:41:55;100368.19;;;14.70;100.00
18821;BME280;9539;59.332;18.034;2022-11-11T07:44:22;100383.41;;;14.58;100.00
18821;BME280;9539;59.332;18.034;2022-11-11T07:46:49;100377.03;;;14.70;100.00
18821;BME280;9539;59.332;18.034;2022-11-11T07:49:16;100383.03;;;14.63;100.00
18821;BME280;9539;59.332;18.034;2022-11-11T07:51:43;100364.22;;;14.64;100.00
18821;BME280;9539;59.332;18.034;2022-11-11T07:54:11;100369.03;;;14.70;100.00
18821;BME280;9539;59.332;18.034;2022-11-11T07:56:37;100361.72;;;14.72;100.00
18821;BME280;9539;59.332;18.034;2022-11-11T07:59:04;100362.97;;;14.68;100.00
18821;BME280;9539;59.332;18.034;2022-11-11T08:01:31;100379.19;;;14.76;100.00
18821;BME280;9539;59.332;18.034;2022-11-11T08:03:58;100386.47;;;14.74;100.00
18821;BME280;9539;59.332;18.034;2022-11-11T08:06:25;100390.59;;;14.78;100.00
18821;BME280;9539;59.332;18.034;2022-11-11T08:08:52;100386.28;;;14.87;100.00
18821;BME280;9539;59.332;18.034;2022-11-11T08:11:20;100390.66;;;14.88;100.00
18821;BME280;9539;59.332;18.034;2022-11-11T08:14:07;100394.59;;;14.84;100.00
18821;BME280;9539;59.332;18.034;2022-11-11T08:16:33;100400.28;;;14.79;100.00
18821;BME280;9539;59.332;18.034;2022-11-11T08:19:00;100368.56;;;14.86;100.00
18821;BME280;9539;59.332;18.034;2022-11-11T08:21:27;100392.03;;;14.83;100.00
18821;BME280;9539;59.332;18.034;2022-11-11T08:23:54;100395.88;;;14.90;100.00
18821;BME280;9539;59.332;18.034;2022-11-11T08:26:22;100387.28;;;14.86;100.00
18821;BME280;9539;59.332;18.034;2022-11-11T08:28:52;100392.72;;;14.85;100.00
18821;BME280;9539;59.332;18.034;2022-11-11T08:31:18;100388.84;;;14.89;100.00
18821;BME280;9539;59.332;18.034;2022-11-11T08:33:45;100401.94;;;14.92;100.00
18821;BME280;9539;59.332;18.034;2022-11-11T08:36:12;100400.91;;;14.83;100.00
18821;BME280;9539;59.332;18.034;2022-11-11T08:38:39;100408.41;;;14.89;100.00
18821;BME280;9539;59.332;18.034;2022-11-11T08:41:06;100398.28;;;14.93;100.00
18821;BME280;9539;59.332;18.034;2022-11-11T08:43:35;100407.09;;;15.04;100.00
18821;BME280;9539;59.332;18.034;2022-11-11T08:46:02;100414.84;;;15.07;100.00
18821;BME280;9539;59.332;18.034;2022-11-11T08:48:30;100430.69;;;14.99;100.00
18821;BME280;9539;59.332;18.034;2022-11-11T08:50:57;100432.22;;;14.81;100.00
18821;BME280;9539;59.332;18.034;2022-11-11T08:53:25;100439.81;;;14.97;100.00
18821;BME280;9539;59.332;18.034;2022-11-11T08:55:52;100430.56;;;15.01;100.00
18821;BME280;9539;59.332;18.034;2022-11-11T08:58:19;100434.53;;;15.06;100.00
18821;BME280;9539;59.332;18.034;2022-11-11T09:00:47;100443.84;;;15.12;100.00
18821;BME280;9539;59.332;18.034;2022-11-11T09:03:14;100450.56;;;15.06;100.00
18821;BME280;9539;59.332;18.034;2022-11-11T09:05:41;100437.28;;;14.95;100.00
18821;BME280;9539;59.332;18.034;2022-11-11T09:08:08;100456.53;;;15.10;100.00
18821;BME280;9539;59.332;18.034;2022-11-11T09:10:36;100438.06;;;15.07;100.00
18821;BME280;9539;59.332;18.034;2022-11-11T09:13:03;100459.53;;;15.16;100.00
18821;BME280;9539;59.332;18.034;2022-11-11T09:15:31;100461.88;;;15.10;100.00
18821;BME280;9539;59.332;18.034;2022-11-11T09:17:59;100465.34;;;15.10;100.00
18821;BME280;9539;59.332;18.034;2022-11-11T09:20:28;100466.94;;;15.13;100.00
18821;BME280;9539;59.332;18.034;2022-11-11T09:22:54;100475.16;;;15.21;100.00
18821;BME280;9539;59.332;18.034;2022-11-11T09:25:21;100483.56;;;15.37;100.00
18821;BME280;9539;59.332;18.034;2022-11-11T09:27:55;100474.38;;;15.30;100.00
18821;BME280;9539;59.332;18.034;2022-11-11T09:30:23;100473.66;;;15.28;100.00
18821;BME280;9539;59.332;18.034;2022-11-11T09:32:50;100479.38;;;15.24;100.00
18821;BME280;9539;59.332;18.034;2022-11-11T09:35:18;100479.19;;;15.15;100.00
18821;BME280;9539;59.332;18.034;2022-11-11T09:37:54;100465.81;;;15.36;100.00
18821;BME280;9539;59.332;18.034;2022-11-11T09:40:24;100473.66;;;15.28;100.00
18821;BME280;9539;59.332;18.034;2022-11-11T09:43:00;100474.88;;;15.24;100.00
18821;BME280;9539;59.332;18.034;2022-11-11T09:45:36;100465.13;;;15.34;100.00
18821;BME280;9539;59.332;18.034;2022-11-11T09:48:23;100479.19;;;15.36;100.00
18821;BME280;9539;59.332;18.034;2022-11-11T09:50:55;100473.28;;;15.33;100.00
18821;BME280;9539;59.332;18.034;2022-11-11T09:53:29;100472.94;;;15.26;100.00
18821;BME280;9539;59.332;18.034;2022-11-11T09:56:01;100476.03;;;15.42;100.00
18821;BME280;9539;59.332;18.034;2022-11-11T09:58:33;100478.22;;;15.37;100.00
18821;BME280;9539;59.332;18.034;2022-11-11T10:01:07;100485.91;;;15.51;100.00
18821;BME280;9539;59.332;18.034;2022-11-11T10:03:39;100487.41;;;15.44;100.00
18821;BME280;9539;59.332;18.034;2022-11-11T10:06:14;100499.16;;;15.32;100.00
18821;BME280;9539;59.332;18.034;2022-11-11T10:08:47;100508.16;;;15.52;100.00
18821;BME280;9539;59.332;18.034;2022-11-11T10:11:19;100502.75;;;15.42;100.00
18821;BME280;9539;59.332;18.034;2022-11-11T10:13:49;100499.56;;;15.48;100.00
18821;BME280;9539;59.332;18.034;2022-11-11T10:16:21;100502.09;;;15.50;100.00
18821;BME280;9539;59.332;18.034;2022-11-11T10:19:03;100496.81;;;15.39;100.00
18821;BME280;9539;59.332;18.034;2022-11-11T10:21:43;100504.72;;;15.40;100.00
18821;BME280;9539;59.332;18.034;2022-11-11T10:24:15;100513.25;;;15.34;100.00
18821;BME280;9539;59.332;18.034;2022-11-11T10:26:44;100520.13;;;15.37;100.00
18821;BME280;9539;59.332;18.034;2022-11-11T10:29:16;100522.38;;;15.32;100.00
18821;BME280;9539;59.332;18.034;2022-11-11T10:31:46;100516.81;;;15.44;100.00
18821;BME280;9539;59.332;18.034;2022-11-11T10:34:16;100530.19;;;15.44;100.00
18821;BME280;9539;59.332;18.034;2022-11-11T10:36:49;100536.53;;;15.43;100.00
18821;BME280;9539;59.332;18.034;2022-11-11T10:39:21;100523.31;;;15.42;100.00
18821;BME280;9539;59.332;18.034;2022-11-11T10:41:51;100525.31;;;15.49;100.00
18821;BME280;9539;59.332;18.034;2022-11-11T10:44:19;100528.81;;;15.50;100.00
18821;BME280;9539;59.332;18.034;2022-11-11T10:46:55;100533.84;;;15.54;100.00
18821;BME280;9539;59.332;18.034;2022-11-11T10:49:28;100535.38;;;15.57;100.00
18821;BME280;9539;59.332;18.034;2022-11-11T10:52:00;100550.91;;;15.63;100.00
18821;BME280;9539;59.332;18.034;2022-11-11T10:54:33;100551.34;;;15.47;100.00
18821;BME280;9539;59.332;18.034;2022-11-11T10:57:08;100556.78;;;15.57;100.00
18821;BME280;9539;59.332;18.034;2022-11-11T10:59:42;100545.13;;;15.58;100.00
18821;BME280;9539;59.332;18.034;2022-11-11T11:02:17;100561.50;;;15.65;100.00
18821;BME280;9539;59.332;18.034;2022-11-11T11:04:48;100562.84;;;15.59;100.00
18821;BME280;9539;59.332;18.034;2022-11-11T11:07:23;100548.97;;;15.65;100.00
18821;BME280;9539;59.332;18.034;2022-11-11T11:09:54;100554.66;;;15.72;100.00
18821;BME280;9539;59.332;18.034;2022-11-11T11:12:27;100564.25;;;15.74;100.00
18821;BME280;9539;59.332;18.034;2022-11-11T11:14:59;100564.69;;;15.79;100.00
18821;BME280;9539;59.332;18.034;2022-11-11T11:17:34;100552.03;;;15.61;100.00
18821;BME280;9539;59.332;18.034;2022-11-11T11:20:10;100554.53;;;15.73;100.00
18821;BME280;9539;59.332;18.034;2022-11-11T11:22:47;100555.38;;;15.74;100.00
18821;BME280;9539;59.332;18.034;2022-11-11T11:25:15;100562.22;;;15.67;100.00
18821;BME280;9539;59.332;18.034;2022-11-11T11:27:43;100554.84;;;15.80;100.00
18821;BME280;9539;59.332;18.034;2022-11-11T11:30:11;100562.75;;;15.81;100.00
18821;BME280;9539;59.332;18.034;2022-11-11T11:32:38;100563.06;;;15.88;100.00
18821;BME280;9539;59.332;18.034;2022-11-11T11:35:07;100563.97;;;15.77;100.00
18821;BME280;9539;59.332;18.034;2022-11-11T11:37:48;100565.88;;;15.86;100.00
18821;BME280;9539;59.332;18.034;2022-11-11T11:40:16;100572.91;;;15.87;100.00
18821;BME280;9539;59.332;18.034;2022-11-11T11:42:43;100566.97;;;15.84;100.00
18821;BME280;9539;59.332;18.034;2022-11-11T11:45:21;100577.09;;;15.80;100.00
18821;BME280;9539;59.332;18.034;2022-11-11T11:48:05;100571.59;;;15.82;100.00
18821;BME280;9539;59.332;18.034;2022-11-11T11:50:41;100564.16;;;15.85;100.00
18821;BME280;9539;59.332;18.034;2022-11-11T11:53:30;100570.41;;;15.95;100.00
18821;BME280;9539;59.332;18.034;2022-11-11T11:56:06;100553.25;;;15.98;100.00
18821;BME280;9539;59.332;18.034;2022-11-11T11:58:41;100565.06;;;15.95;100.00
18821;BME280;9539;59.332;18.034;2022-11-11T12:01:16;100565.31;;;16.13;100.00
18821;BME280;9539;59.332;18.034;2022-11-11T12:07:06;100558.31;;;16.01;100.00
18821;BME280;9539;59.332;18.034;2022-11-11T12:09:49;100560.88;;;16.03;100.00
18821;BME280;9539;59.332;18.034;2022-11-11T12:12:25;100561.50;;;16.16;100.00
18821;BME280;9539;59.332;18.034;2022-11-11T12:15:06;100557.63;;;15.99;100.00
18821;BME280;9539;59.332;18.034;2022-11-11T12:17:43;100541.25;;;15.92;100.00
18821;BME280;9539;59.332;18.034;2022-11-11T12:20:17;100554.84;;;16.01;100.00
18821;BME280;9539;59.332;18.034;2022-11-11T12:23:03;100573.69;;;15.99;100.00
18821;BME280;9539;59.332;18.034;2022-11-11T12:25:45;100576.41;;;16.09;100.00
18821;BME280;9539;59.332;18.034;2022-11-11T12:28:26;100583.88;;;16.05;100.00
18821;BME280;9539;59.332;18.034;2022-11-11T12:31:09;100590.25;;;16.14;100.00
18821;BME280;9539;59.332;18.034;2022-11-11T12:33:55;100592.47;;;16.09;100.00
18821;BME280;9539;59.332;18.034;2022-11-11T12:36:29;100588.38;;;16.05;100.00
18821;BME280;9539;59.332;18.034;2022-11-11T12:39:05;100599.94;;;16.05;100.00
18821;BME280;9539;59.332;18.034;2022-11-11T12:41:46;100615.19;;;16.14;100.00
18821;BME280;9539;59.332;18.034;2022-11-11T12:44:16;100582.78;;;15.87;100.00
18821;BME280;9539;59.332;18.034;2022-11-11T12:46:50;100609.88;;;15.93;100.00
18821;BME280;9539;59.332;18.034;2022-11-11T12:49:36;100609.25;;;15.90;100.00
18821;BME280;9539;59.332;18.034;2022-11-11T12:52:19;100613.75;;;15.89;100.00
18821;BME280;9539;59.332;18.034;2022-11-11T12:55:06;100617.16;;;15.91;100.00
18821;BME280;9539;59.332;18.034;2022-11-11T12:57:50;100612.91;;;16.10;100.00
18821;BME280;9539;59.332;18.034;2022-11-11T13:00:23;100629.78;;;16.01;100.00
18821;BME280;9539;59.332;18.034;2022-11-11T13:03:03;100631.91;;;16.07;100.00
18821;BME280;9539;59.332;18.034;2022-11-11T13:05:34;100613.50;;;15.92;100.00